sensor_id;sensor_type;location;lat;lon;timestamp;temperature;humidity
26707;DHT22;14319;49.422;10.934;2024-03-08T00:01:35;2.20;79.20
26707;DHT22;14319;49.422;10.934;2024-03-08T00:03:36;2.20;79.00
26707;DHT22;14319;49.422;10.934;2024-03-08T00:05:36;2.20;78.70
26707;DHT22;14319;49.422;10.934;2024-03-08T00:07:39;2.20;79.10
26707;DHT22;14319;49.422;10.934;2024-03-08T00:09:40;2.20;78.90
26707;DHT22;14319;49.422;10.934;2024-03-08T00:11:41;2.20;78.70
26707;DHT22;14319;49.422;10.934;2024-03-08T00:13:41;2.10;79.00
26707;DHT22;14319;49.422;10.934;2024-03-08T00:15:42;2.10;79.00
26707;DHT22;14319;49.422;10.934;2024-03-08T00:17:44;2.10;78.90
26707;DHT22;14319;49.422;10.934;2024-03-08T00:19:45;2.10;79.20
26707;DHT22;14319;49.422;10.934;2024-03-08T00:21:45;2.10;79.50
26707;DHT22;14319;49.422;10.934;2024-03-08T00:23:46;2.20;79.50
26707;DHT22;14319;49.422;10.934;2024-03-08T00:25:47;2.30;79.50
26707;DHT22;14319;49.422;10.934;2024-03-08T00:27:48;2.50;78.60
26707;DHT22;14319;49.422;10.934;2024-03-08T00:29:49;2.50;78.80
26707;DHT22;14319;49.422;10.934;2024-03-08T00:31:50;2.40;78.80
26707;DHT22;14319;49.422;10.934;2024-03-08T00:33:51;2.40;78.80
26707;DHT22;14319;49.422;10.934;2024-03-08T00:35:56;2.30;78.60
26707;DHT22;14319;49.422;10.934;2024-03-08T00:37:56;2.10;79.00
26707;DHT22;14319;49.422;10.934;2024-03-08T00:39:57;2.10;79.40
26707;DHT22;14319;49.422;10.934;2024-03-08T00:41:57;2.20;79.90
26707;DHT22;14319;49.422;10.934;2024-03-08T00:43:58;2.30;80.10
26707;DHT22;14319;49.422;10.934;2024-03-08T00:45:59;2.40;79.40
26707;DHT22;14319;49.422;10.934;2024-03-08T00:47:59;2.50;78.90
26707;DHT22;14319;49.422;10.934;2024-03-08T00:50:00;2.60;78.90
26707;DHT22;14319;49.422;10.934;2024-03-08T00:52:06;2.60;78.50
26707;DHT22;14319;49.422;10.934;2024-03-08T00:54:10;2.60;78.00
26707;DHT22;14319;49.422;10.934;2024-03-08T00:56:10;2.70;78.30
26707;DHT22;14319;49.422;10.934;2024-03-08T00:58:11;2.70;77.70
26707;DHT22;14319;49.422;10.934;2024-03-08T01:00:12;2.50;77.90
26707;DHT22;14319;49.422;10.934;2024-03-08T01:02:12;2.30;78.90
26707;DHT22;14319;49.422;10.934;2024-03-08T01:04:13;2.20;78.70
26707;DHT22;14319;49.422;10.934;2024-03-08T01:06:14;2.00;79.30
26707;DHT22;14319;49.422;10.934;2024-03-08T01:08:15;1.90;80.10
26707;DHT22;14319;49.422;10.934;2024-03-08T01:10:15;1.80;80.20
26707;DHT22;14319;49.422;10.934;2024-03-08T01:12:16;1.90;80.20
26707;DHT22;14319;49.422;10.934;2024-03-08T01:14:17;1.80;80.90
26707;DHT22;14319;49.422;10.934;2024-03-08T01:16:17;1.70;80.70
26707;DHT22;14319;49.422;10.934;2024-03-08T01:18:18;1.70;80.70
26707;DHT22;14319;49.422;10.934;2024-03-08T01:20:20;1.60;80.60
26707;DHT22;14319;49.422;10.934;2024-03-08T01:22:21;1.60;81.20
26707;DHT22;14319;49.422;10.934;2024-03-08T01:24:23;1.50;81.50
26707;DHT22;14319;49.422;10.934;2024-03-08T01:26:23;1.40;81.00
26707;DHT22;14319;49.422;10.934;2024-03-08T01:28:26;1.40;81.80
26707;DHT22;14319;49.422;10.934;2024-03-08T01:30:27;1.40;81.70
26707;DHT22;14319;49.422;10.934;2024-03-08T01:32:28;1.40;81.40
26707;DHT22;14319;49.422;10.934;2024-03-08T01:34:29;1.30;81.60
26707;DHT22;14319;49.422;10.934;2024-03-08T01:36:30;1.30;81.40
26707;DHT22;14319;49.422;10.934;2024-03-08T01:38:30;1.20;82.20
26707;DHT22;14319;49.422;10.934;2024-03-08T01:40:31;1.20;82.10
26707;DHT22;14319;49.422;10.934;2024-03-08T01:42:31;1.20;82.20
26707;DHT22;14319;49.422;10.934;2024-03-08T01:44:32;1.10;83.10
26707;DHT22;14319;49.422;10.934;2024-03-08T01:46:33;1.10;82.40
26707;DHT22;14319;49.422;10.934;2024-03-08T01:48:34;1.00;82.40
26707;DHT22;14319;49.422;10.934;2024-03-08T01:50:35;1.10;83.10
26707;DHT22;14319;49.422;10.934;2024-03-08T01:52:36;1.10;82.60
26707;DHT22;14319;49.422;10.934;2024-03-08T01:54:37;1.10;82.60
26707;DHT22;14319;49.422;10.934;2024-03-08T01:56:38;1.10;82.70
26707;DHT22;14319;49.422;10.934;2024-03-08T01:58:41;1.20;82.60
26707;DHT22;14319;49.422;10.934;2024-03-08T02:00:48;1.30;82.60
26707;DHT22;14319;49.422;10.934;2024-03-08T02:02:54;1.40;81.70
26707;DHT22;14319;49.422;10.934;2024-03-08T02:04:54;1.40;82.20
26707;DHT22;14319;49.422;10.934;2024-03-08T02:06:55;1.60;81.30
26707;DHT22;14319;49.422;10.934;2024-03-08T02:08:56;1.70;80.90
26707;DHT22;14319;49.422;10.934;2024-03-08T02:10:57;1.90;80.20
26707;DHT22;14319;49.422;10.934;2024-03-08T02:12:57;2.00;79.40
26707;DHT22;14319;49.422;10.934;2024-03-08T02:14:58;1.90;79.00
26707;DHT22;14319;49.422;10.934;2024-03-08T02:17:02;1.60;80.10
26707;DHT22;14319;49.422;10.934;2024-03-08T02:19:03;1.40;80.10
26707;DHT22;14319;49.422;10.934;2024-03-08T02:21:05;1.20;80.70
26707;DHT22;14319;49.422;10.934;2024-03-08T02:23:05;1.10;81.30
26707;DHT22;14319;49.422;10.934;2024-03-08T02:25:08;1.00;81.70
26707;DHT22;14319;49.422;10.934;2024-03-08T02:27:08;0.90;82.00
26707;DHT22;14319;49.422;10.934;2024-03-08T02:29:12;0.80;82.30
26707;DHT22;14319;49.422;10.934;2024-03-08T02:31:15;0.80;82.60
26707;DHT22;14319;49.422;10.934;2024-03-08T02:33:16;0.80;83.00
26707;DHT22;14319;49.422;10.934;2024-03-08T02:35:17;0.90;83.00
26707;DHT22;14319;49.422;10.934;2024-03-08T02:37:18;0.90;83.30
26707;DHT22;14319;49.422;10.934;2024-03-08T02:39:18;0.90;83.40
26707;DHT22;14319;49.422;10.934;2024-03-08T02:41:20;0.80;84.10
26707;DHT22;14319;49.422;10.934;2024-03-08T02:43:21;0.80;83.60
26707;DHT22;14319;49.422;10.934;2024-03-08T02:45:22;0.80;83.40
26707;DHT22;14319;49.422;10.934;2024-03-08T02:47:23;0.80;83.70
26707;DHT22;14319;49.422;10.934;2024-03-08T02:49:23;0.80;84.00
26707;DHT22;14319;49.422;10.934;2024-03-08T02:51:24;0.80;84.10
26707;DHT22;14319;49.422;10.934;2024-03-08T02:53:26;0.80;84.60
26707;DHT22;14319;49.422;10.934;2024-03-08T02:55:28;0.80;84.00
26707;DHT22;14319;49.422;10.934;2024-03-08T02:57:28;0.80;83.60
26707;DHT22;14319;49.422;10.934;2024-03-08T02:59:29;0.90;84.30
26707;DHT22;14319;49.422;10.934;2024-03-08T03:01:29;1.20;83.40
26707;DHT22;14319;49.422;10.934;2024-03-08T03:03:30;1.30;82.60
26707;DHT22;14319;49.422;10.934;2024-03-08T03:05:30;1.40;82.10
26707;DHT22;14319;49.422;10.934;2024-03-08T03:07:34;1.50;81.70
26707;DHT22;14319;49.422;10.934;2024-03-08T03:09:35;1.60;81.20
26707;DHT22;14319;49.422;10.934;2024-03-08T03:11:35;1.60;80.50
26707;DHT22;14319;49.422;10.934;2024-03-08T03:13:36;1.50;80.80
26707;DHT22;14319;49.422;10.934;2024-03-08T03:15:36;1.50;80.90
26707;DHT22;14319;49.422;10.934;2024-03-08T03:17:37;1.30;81.10
26707;DHT22;14319;49.422;10.934;2024-03-08T03:19:40;1.10;81.70
26707;DHT22;14319;49.422;10.934;2024-03-08T03:21:41;0.90;82.40
26707;DHT22;14319;49.422;10.934;2024-03-08T03:23:43;0.80;82.60
26707;DHT22;14319;49.422;10.934;2024-03-08T03:25:44;0.80;83.10
26707;DHT22;14319;49.422;10.934;2024-03-08T03:27:46;0.80;83.20
26707;DHT22;14319;49.422;10.934;2024-03-08T03:29:47;0.70;83.40
26707;DHT22;14319;49.422;10.934;2024-03-08T03:31:47;0.70;83.60
26707;DHT22;14319;49.422;10.934;2024-03-08T03:33:48;0.60;83.30
26707;DHT22;14319;49.422;10.934;2024-03-08T03:35:48;0.60;83.50
26707;DHT22;14319;49.422;10.934;2024-03-08T03:37:49;0.50;84.00
26707;DHT22;14319;49.422;10.934;2024-03-08T03:40:09;0.50;84.30
26707;DHT22;14319;49.422;10.934;2024-03-08T03:42:09;0.60;83.90
26707;DHT22;14319;49.422;10.934;2024-03-08T03:44:10;0.70;84.00
26707;DHT22;14319;49.422;10.934;2024-03-08T03:46:11;0.60;83.30
26707;DHT22;14319;49.422;10.934;2024-03-08T03:48:11;0.60;83.50
26707;DHT22;14319;49.422;10.934;2024-03-08T03:50:12;0.50;83.80
26707;DHT22;14319;49.422;10.934;2024-03-08T03:52:13;0.60;84.00
26707;DHT22;14319;49.422;10.934;2024-03-08T03:54:13;0.60;83.60
26707;DHT22;14319;49.422;10.934;2024-03-08T03:56:14;0.60;84.20
26707;DHT22;14319;49.422;10.934;2024-03-08T03:58:15;0.70;83.60
26707;DHT22;14319;49.422;10.934;2024-03-08T04:00:16;0.70;83.60
26707;DHT22;14319;49.422;10.934;2024-03-08T04:02:17;0.70;83.80
26707;DHT22;14319;49.422;10.934;2024-03-08T04:04:18;0.70;83.80
26707;DHT22;14319;49.422;10.934;2024-03-08T04:06:18;0.70;83.90
26707;DHT22;14319;49.422;10.934;2024-03-08T04:08:19;0.90;84.30
26707;DHT22;14319;49.422;10.934;2024-03-08T04:10:19;1.10;83.10
26707;DHT22;14319;49.422;10.934;2024-03-08T04:12:20;1.00;82.20
26707;DHT22;14319;49.422;10.934;2024-03-08T04:14:21;1.00;83.20
26707;DHT22;14319;49.422;10.934;2024-03-08T04:16:21;1.00;83.20
26707;DHT22;14319;49.422;10.934;2024-03-08T04:18:22;1.00;83.30
26707;DHT22;14319;49.422;10.934;2024-03-08T04:20:23;1.00;83.10
26707;DHT22;14319;49.422;10.934;2024-03-08T04:22:23;0.90;83.00
26707;DHT22;14319;49.422;10.934;2024-03-08T04:24:24;0.80;83.10
26707;DHT22;14319;49.422;10.934;2024-03-08T04:26:24;0.90;83.20
26707;DHT22;14319;49.422;10.934;2024-03-08T04:28:26;0.80;83.70
26707;DHT22;14319;49.422;10.934;2024-03-08T04:30:27;0.90;83.20
26707;DHT22;14319;49.422;10.934;2024-03-08T04:32:28;0.90;83.30
26707;DHT22;14319;49.422;10.934;2024-03-08T04:34:30;1.00;83.40
26707;DHT22;14319;49.422;10.934;2024-03-08T04:36:30;1.20;82.30
26707;DHT22;14319;49.422;10.934;2024-03-08T04:38:31;1.10;82.10
26707;DHT22;14319;49.422;10.934;2024-03-08T04:40:32;1.20;81.90
26707;DHT22;14319;49.422;10.934;2024-03-08T04:42:33;1.00;81.90
26707;DHT22;14319;49.422;10.934;2024-03-08T04:44:34;1.10;82.30
26707;DHT22;14319;49.422;10.934;2024-03-08T04:46:35;1.20;82.30
26707;DHT22;14319;49.422;10.934;2024-03-08T04:48:35;1.20;82.20
26707;DHT22;14319;49.422;10.934;2024-03-08T04:50:36;1.40;81.70
26707;DHT22;14319;49.422;10.934;2024-03-08T04:52:38;1.30;81.40
26707;DHT22;14319;49.422;10.934;2024-03-08T04:54:39;1.30;81.90
26707;DHT22;14319;49.422;10.934;2024-03-08T04:56:40;1.40;81.40
26707;DHT22;14319;49.422;10.934;2024-03-08T04:58:40;1.40;80.40
26707;DHT22;14319;49.422;10.934;2024-03-08T05:00:41;1.20;81.00
26707;DHT22;14319;49.422;10.934;2024-03-08T05:02:41;1.20;82.00
26707;DHT22;14319;49.422;10.934;2024-03-08T05:04:42;1.30;82.20
26707;DHT22;14319;49.422;10.934;2024-03-08T05:06:42;1.30;81.50
26707;DHT22;14319;49.422;10.934;2024-03-08T05:08:43;1.20;81.50
26707;DHT22;14319;49.422;10.934;2024-03-08T05:10:44;1.10;82.70
26707;DHT22;14319;49.422;10.934;2024-03-08T05:12:44;1.00;82.00
26707;DHT22;14319;49.422;10.934;2024-03-08T05:14:45;0.90;82.70
26707;DHT22;14319;49.422;10.934;2024-03-08T05:16:49;1.10;82.90
26707;DHT22;14319;49.422;10.934;2024-03-08T05:18:50;1.10;82.30
26707;DHT22;14319;49.422;10.934;2024-03-08T05:20:51;1.00;81.80
26707;DHT22;14319;49.422;10.934;2024-03-08T05:22:52;0.80;82.80
26707;DHT22;14319;49.422;10.934;2024-03-08T05:24:52;0.90;82.70
26707;DHT22;14319;49.422;10.934;2024-03-08T05:26:53;0.90;83.10
26707;DHT22;14319;49.422;10.934;2024-03-08T05:28:54;0.80;83.10
26707;DHT22;14319;49.422;10.934;2024-03-08T05:30:54;0.60;83.10
26707;DHT22;14319;49.422;10.934;2024-03-08T05:32:57;0.70;83.90
26707;DHT22;14319;49.422;10.934;2024-03-08T05:34:57;0.60;83.40
26707;DHT22;14319;49.422;10.934;2024-03-08T05:36:58;0.60;83.70
26707;DHT22;14319;49.422;10.934;2024-03-08T05:38:59;0.60;84.10
26707;DHT22;14319;49.422;10.934;2024-03-08T05:40:59;0.70;84.40
26707;DHT22;14319;49.422;10.934;2024-03-08T05:43:00;0.60;83.70
26707;DHT22;14319;49.422;10.934;2024-03-08T05:45:00;0.60;83.90
26707;DHT22;14319;49.422;10.934;2024-03-08T05:47:01;0.60;83.40
26707;DHT22;14319;49.422;10.934;2024-03-08T05:49:02;0.50;84.10
26707;DHT22;14319;49.422;10.934;2024-03-08T05:51:05;0.40;83.80
26707;DHT22;14319;49.422;10.934;2024-03-08T05:53:06;0.40;84.40
26707;DHT22;14319;49.422;10.934;2024-03-08T05:55:07;0.30;84.40
26707;DHT22;14319;49.422;10.934;2024-03-08T05:57:10;0.30;85.00
26707;DHT22;14319;49.422;10.934;2024-03-08T05:59:14;0.20;84.50
26707;DHT22;14319;49.422;10.934;2024-03-08T06:01:14;0.20;84.60
26707;DHT22;14319;49.422;10.934;2024-03-08T06:03:15;0.30;85.40
26707;DHT22;14319;49.422;10.934;2024-03-08T06:05:16;0.40;85.00
26707;DHT22;14319;49.422;10.934;2024-03-08T06:07:17;0.40;84.70
26707;DHT22;14319;49.422;10.934;2024-03-08T06:09:18;0.30;84.50
26707;DHT22;14319;49.422;10.934;2024-03-08T06:11:23;0.30;85.00
26707;DHT22;14319;49.422;10.934;2024-03-08T06:13:24;0.20;85.00
26707;DHT22;14319;49.422;10.934;2024-03-08T06:15:24;0.20;85.40
26707;DHT22;14319;49.422;10.934;2024-03-08T06:17:25;0.20;85.50
26707;DHT22;14319;49.422;10.934;2024-03-08T06:19:26;0.20;85.70
26707;DHT22;14319;49.422;10.934;2024-03-08T06:21:27;0.20;85.60
26707;DHT22;14319;49.422;10.934;2024-03-08T06:23:27;0.20;85.70
26707;DHT22;14319;49.422;10.934;2024-03-08T06:25:28;0.20;86.20
26707;DHT22;14319;49.422;10.934;2024-03-08T06:27:29;0.20;86.00
26707;DHT22;14319;49.422;10.934;2024-03-08T06:29:30;0.30;86.30
26707;DHT22;14319;49.422;10.934;2024-03-08T06:31:30;0.40;85.80
26707;DHT22;14319;49.422;10.934;2024-03-08T06:33:31;0.40;85.50
26707;DHT22;14319;49.422;10.934;2024-03-08T06:35:33;0.50;86.10
26707;DHT22;14319;49.422;10.934;2024-03-08T06:37:33;0.70;85.80
26707;DHT22;14319;49.422;10.934;2024-03-08T06:39:34;0.80;85.30
26707;DHT22;14319;49.422;10.934;2024-03-08T06:41:36;0.90;85.10
26707;DHT22;14319;49.422;10.934;2024-03-08T06:43:37;1.00;85.10
26707;DHT22;14319;49.422;10.934;2024-03-08T06:45:38;1.00;85.10
26707;DHT22;14319;49.422;10.934;2024-03-08T06:47:39;1.20;85.50
26707;DHT22;14319;49.422;10.934;2024-03-08T06:49:44;1.20;84.70
26707;DHT22;14319;49.422;10.934;2024-03-08T06:51:45;1.40;84.40
26707;DHT22;14319;49.422;10.934;2024-03-08T06:53:46;1.30;84.50
26707;DHT22;14319;49.422;10.934;2024-03-08T06:55:49;1.40;84.20
26707;DHT22;14319;49.422;10.934;2024-03-08T06:57:50;1.50;84.70
26707;DHT22;14319;49.422;10.934;2024-03-08T06:59:51;1.70;84.40
26707;DHT22;14319;49.422;10.934;2024-03-08T07:01:52;1.90;83.60
26707;DHT22;14319;49.422;10.934;2024-03-08T07:03:54;2.00;82.80
26707;DHT22;14319;49.422;10.934;2024-03-08T07:05:57;2.10;82.80
26707;DHT22;14319;49.422;10.934;2024-03-08T07:07:58;2.10;82.70
26707;DHT22;14319;49.422;10.934;2024-03-08T07:09:59;2.00;82.80
26707;DHT22;14319;49.422;10.934;2024-03-08T07:11:59;2.20;82.90
26707;DHT22;14319;49.422;10.934;2024-03-08T07:14:00;2.30;82.60
26707;DHT22;14319;49.422;10.934;2024-03-08T07:16:03;2.30;81.90
26707;DHT22;14319;49.422;10.934;2024-03-08T07:18:04;2.30;82.40
26707;DHT22;14319;49.422;10.934;2024-03-08T07:20:06;2.30;82.80
26707;DHT22;14319;49.422;10.934;2024-03-08T07:22:12;2.40;82.80
26707;DHT22;14319;49.422;10.934;2024-03-08T07:24:12;2.40;82.70
26707;DHT22;14319;49.422;10.934;2024-03-08T07:26:33;2.40;82.70
26707;DHT22;14319;49.422;10.934;2024-03-08T07:28:34;2.50;82.60
26707;DHT22;14319;49.422;10.934;2024-03-08T07:30:35;2.50;82.90
26707;DHT22;14319;49.422;10.934;2024-03-08T07:32:44;2.60;82.90
26707;DHT22;14319;49.422;10.934;2024-03-08T07:34:46;2.70;82.60
26707;DHT22;14319;49.422;10.934;2024-03-08T07:36:48;2.80;82.40
26707;DHT22;14319;49.422;10.934;2024-03-08T07:38:51;2.80;82.30
26707;DHT22;14319;49.422;10.934;2024-03-08T07:40:51;2.80;82.00
26707;DHT22;14319;49.422;10.934;2024-03-08T07:42:52;2.90;81.90
26707;DHT22;14319;49.422;10.934;2024-03-08T07:44:53;3.00;82.20
26707;DHT22;14319;49.422;10.934;2024-03-08T07:46:54;3.00;82.00
26707;DHT22;14319;49.422;10.934;2024-03-08T07:48:54;3.10;81.60
26707;DHT22;14319;49.422;10.934;2024-03-08T07:50:55;3.20;81.40
26707;DHT22;14319;49.422;10.934;2024-03-08T07:52:56;3.10;81.90
26707;DHT22;14319;49.422;10.934;2024-03-08T07:54:56;3.10;82.10
26707;DHT22;14319;49.422;10.934;2024-03-08T07:56:57;3.20;81.80
26707;DHT22;14319;49.422;10.934;2024-03-08T07:58:57;3.20;81.90
26707;DHT22;14319;49.422;10.934;2024-03-08T08:00:58;3.30;81.70
26707;DHT22;14319;49.422;10.934;2024-03-08T08:02:59;3.40;81.20
26707;DHT22;14319;49.422;10.934;2024-03-08T08:04:59;3.40;81.50
26707;DHT22;14319;49.422;10.934;2024-03-08T08:07:00;3.40;80.70
26707;DHT22;14319;49.422;10.934;2024-03-08T08:09:01;3.50;80.50
26707;DHT22;14319;49.422;10.934;2024-03-08T08:11:01;3.50;80.50
26707;DHT22;14319;49.422;10.934;2024-03-08T08:13:03;3.60;81.90
26707;DHT22;14319;49.422;10.934;2024-03-08T08:15:06;3.60;80.90
26707;DHT22;14319;49.422;10.934;2024-03-08T08:17:07;3.60;81.30
26707;DHT22;14319;49.422;10.934;2024-03-08T08:19:09;3.70;80.80
26707;DHT22;14319;49.422;10.934;2024-03-08T08:21:09;3.70;80.40
26707;DHT22;14319;49.422;10.934;2024-03-08T08:23:11;3.80;80.30
26707;DHT22;14319;49.422;10.934;2024-03-08T08:25:12;3.80;80.20
26707;DHT22;14319;49.422;10.934;2024-03-08T08:27:13;3.90;80.40
26707;DHT22;14319;49.422;10.934;2024-03-08T08:29:14;3.90;80.40
26707;DHT22;14319;49.422;10.934;2024-03-08T08:31:15;3.90;80.80
26707;DHT22;14319;49.422;10.934;2024-03-08T08:33:16;4.10;80.40
26707;DHT22;14319;49.422;10.934;2024-03-08T08:35:17;4.00;80.20
26707;DHT22;14319;49.422;10.934;2024-03-08T08:37:20;4.10;80.20
26707;DHT22;14319;49.422;10.934;2024-03-08T08:39:20;4.10;80.60
26707;DHT22;14319;49.422;10.934;2024-03-08T08:41:23;4.10;80.40
26707;DHT22;14319;49.422;10.934;2024-03-08T08:43:23;4.20;80.20
26707;DHT22;14319;49.422;10.934;2024-03-08T08:45:26;4.20;80.20
26707;DHT22;14319;49.422;10.934;2024-03-08T08:47:27;4.30;79.60
26707;DHT22;14319;49.422;10.934;2024-03-08T08:49:28;4.40;77.50
26707;DHT22;14319;49.422;10.934;2024-03-08T08:51:29;4.50;78.20
26707;DHT22;14319;49.422;10.934;2024-03-08T08:53:29;4.40;78.30
26707;DHT22;14319;49.422;10.934;2024-03-08T08:55:30;4.50;78.40
26707;DHT22;14319;49.422;10.934;2024-03-08T08:57:31;4.60;77.20
26707;DHT22;14319;49.422;10.934;2024-03-08T08:59:34;4.60;77.30
26707;DHT22;14319;49.422;10.934;2024-03-08T09:01:36;4.70;77.50
26707;DHT22;14319;49.422;10.934;2024-03-08T09:03:37;4.70;77.70
26707;DHT22;14319;49.422;10.934;2024-03-08T09:05:37;4.80;77.00
26707;DHT22;14319;49.422;10.934;2024-03-08T09:07:38;4.80;76.50
26707;DHT22;14319;49.422;10.934;2024-03-08T09:09:38;4.80;77.00
26707;DHT22;14319;49.422;10.934;2024-03-08T09:11:39;5.00;75.80
26707;DHT22;14319;49.422;10.934;2024-03-08T09:13:45;5.10;74.70
26707;DHT22;14319;49.422;10.934;2024-03-08T09:15:46;5.00;73.70
26707;DHT22;14319;49.422;10.934;2024-03-08T09:17:47;5.00;74.90
26707;DHT22;14319;49.422;10.934;2024-03-08T09:19:48;5.00;74.10
26707;DHT22;14319;49.422;10.934;2024-03-08T09:21:49;5.00;74.10
26707;DHT22;14319;49.422;10.934;2024-03-08T09:23:50;5.20;74.90
26707;DHT22;14319;49.422;10.934;2024-03-08T09:25:50;5.20;74.00
26707;DHT22;14319;49.422;10.934;2024-03-08T09:27:52;5.40;74.70
26707;DHT22;14319;49.422;10.934;2024-03-08T09:29:52;5.50;74.50
26707;DHT22;14319;49.422;10.934;2024-03-08T09:31:53;5.50;74.60
26707;DHT22;14319;49.422;10.934;2024-03-08T09:33:53;5.50;73.90
26707;DHT22;14319;49.422;10.934;2024-03-08T09:35:54;5.60;73.10
26707;DHT22;14319;49.422;10.934;2024-03-08T09:37:54;5.60;72.30
26707;DHT22;14319;49.422;10.934;2024-03-08T09:39:56;5.60;73.10
26707;DHT22;14319;49.422;10.934;2024-03-08T09:41:58;5.60;73.00
26707;DHT22;14319;49.422;10.934;2024-03-08T09:43:58;5.70;73.40
26707;DHT22;14319;49.422;10.934;2024-03-08T09:46:00;5.80;72.90
26707;DHT22;14319;49.422;10.934;2024-03-08T09:48:01;5.80;73.70
26707;DHT22;14319;49.422;10.934;2024-03-08T09:50:02;5.90;73.60
26707;DHT22;14319;49.422;10.934;2024-03-08T09:52:02;6.00;72.10
26707;DHT22;14319;49.422;10.934;2024-03-08T09:54:05;5.90;72.40
26707;DHT22;14319;49.422;10.934;2024-03-08T09:56:06;6.00;72.60
26707;DHT22;14319;49.422;10.934;2024-03-08T09:58:09;6.10;73.60
26707;DHT22;14319;49.422;10.934;2024-03-08T10:00:18;6.30;72.40
26707;DHT22;14319;49.422;10.934;2024-03-08T10:02:24;6.30;71.90
26707;DHT22;14319;49.422;10.934;2024-03-08T10:04:25;6.40;72.50
26707;DHT22;14319;49.422;10.934;2024-03-08T10:06:31;6.40;71.40
26707;DHT22;14319;49.422;10.934;2024-03-08T10:08:31;6.50;72.50
26707;DHT22;14319;49.422;10.934;2024-03-08T10:10:34;6.50;71.20
26707;DHT22;14319;49.422;10.934;2024-03-08T10:12:35;6.40;70.40
26707;DHT22;14319;49.422;10.934;2024-03-08T10:14:39;6.50;71.10
26707;DHT22;14319;49.422;10.934;2024-03-08T10:16:40;6.40;70.50
26707;DHT22;14319;49.422;10.934;2024-03-08T10:18:41;6.50;71.30
26707;DHT22;14319;49.422;10.934;2024-03-08T10:20:42;6.60;71.60
26707;DHT22;14319;49.422;10.934;2024-03-08T10:22:43;6.60;70.10
26707;DHT22;14319;49.422;10.934;2024-03-08T10:24:47;6.70;69.80
26707;DHT22;14319;49.422;10.934;2024-03-08T10:26:47;6.70;68.90
26707;DHT22;14319;49.422;10.934;2024-03-08T10:28:50;6.70;69.50
26707;DHT22;14319;49.422;10.934;2024-03-08T10:30:51;6.70;70.40
26707;DHT22;14319;49.422;10.934;2024-03-08T10:32:52;6.80;69.60
26707;DHT22;14319;49.422;10.934;2024-03-08T10:34:52;6.80;69.20
26707;DHT22;14319;49.422;10.934;2024-03-08T10:36:53;6.90;68.30
26707;DHT22;14319;49.422;10.934;2024-03-08T10:39:00;6.90;68.40
26707;DHT22;14319;49.422;10.934;2024-03-08T10:41:03;6.90;67.10
26707;DHT22;14319;49.422;10.934;2024-03-08T10:43:11;6.90;66.60
26707;DHT22;14319;49.422;10.934;2024-03-08T10:45:36;7.00;66.90
26707;DHT22;14319;49.422;10.934;2024-03-08T10:47:41;7.10;66.60
26707;DHT22;14319;49.422;10.934;2024-03-08T10:49:51;7.00;65.70
26707;DHT22;14319;49.422;10.934;2024-03-08T10:51:54;7.00;66.50
26707;DHT22;14319;49.422;10.934;2024-03-08T10:53:57;7.10;66.00
26707;DHT22;14319;49.422;10.934;2024-03-08T10:55:58;7.10;67.80
26707;DHT22;14319;49.422;10.934;2024-03-08T10:57:58;7.20;67.80
26707;DHT22;14319;49.422;10.934;2024-03-08T10:59:59;7.20;67.20
26707;DHT22;14319;49.422;10.934;2024-03-08T11:02:00;7.30;65.90
26707;DHT22;14319;49.422;10.934;2024-03-08T11:04:04;7.30;65.80
26707;DHT22;14319;49.422;10.934;2024-03-08T11:06:05;7.40;65.90
26707;DHT22;14319;49.422;10.934;2024-03-08T11:10:20;7.50;65.50
26707;DHT22;14319;49.422;10.934;2024-03-08T11:12:25;7.60;65.10
26707;DHT22;14319;49.422;10.934;2024-03-08T11:14:49;7.70;65.30
26707;DHT22;14319;49.422;10.934;2024-03-08T11:16:50;7.80;64.50
26707;DHT22;14319;49.422;10.934;2024-03-08T11:18:53;7.80;64.60
26707;DHT22;14319;49.422;10.934;2024-03-08T11:20:55;7.80;65.70
26707;DHT22;14319;49.422;10.934;2024-03-08T11:23:00;7.80;65.20
26707;DHT22;14319;49.422;10.934;2024-03-08T11:25:05;7.80;64.10
26707;DHT22;14319;49.422;10.934;2024-03-08T11:27:09;7.80;64.80
26707;DHT22;14319;49.422;10.934;2024-03-08T11:31:29;7.90;64.30
26707;DHT22;14319;49.422;10.934;2024-03-08T11:33:31;7.90;65.70
26707;DHT22;14319;49.422;10.934;2024-03-08T11:35:33;8.00;66.60
26707;DHT22;14319;49.422;10.934;2024-03-08T11:37:34;8.10;64.40
26707;DHT22;14319;49.422;10.934;2024-03-08T11:39:36;8.20;63.70
26707;DHT22;14319;49.422;10.934;2024-03-08T11:41:37;8.20;62.30
26707;DHT22;14319;49.422;10.934;2024-03-08T11:43:42;8.30;61.70
26707;DHT22;14319;49.422;10.934;2024-03-08T11:45:43;8.40;62.40
26707;DHT22;14319;49.422;10.934;2024-03-08T11:47:44;8.40;59.70
26707;DHT22;14319;49.422;10.934;2024-03-08T11:49:47;8.40;59.00
26707;DHT22;14319;49.422;10.934;2024-03-08T11:51:51;8.50;59.50
26707;DHT22;14319;49.422;10.934;2024-03-08T11:53:53;8.50;59.20
26707;DHT22;14319;49.422;10.934;2024-03-08T11:55:53;8.50;60.10
26707;DHT22;14319;49.422;10.934;2024-03-08T11:58:03;8.60;59.50
26707;DHT22;14319;49.422;10.934;2024-03-08T12:00:05;8.60;58.70
26707;DHT22;14319;49.422;10.934;2024-03-08T12:02:09;8.60;58.00
26707;DHT22;14319;49.422;10.934;2024-03-08T12:04:12;8.60;57.70
26707;DHT22;14319;49.422;10.934;2024-03-08T12:06:13;8.70;57.60
26707;DHT22;14319;49.422;10.934;2024-03-08T12:08:16;8.70;58.70
26707;DHT22;14319;49.422;10.934;2024-03-08T12:10:18;8.80;57.50
26707;DHT22;14319;49.422;10.934;2024-03-08T12:12:19;8.90;57.60
26707;DHT22;14319;49.422;10.934;2024-03-08T12:14:19;8.80;57.10
26707;DHT22;14319;49.422;10.934;2024-03-08T12:16:21;8.90;57.40
26707;DHT22;14319;49.422;10.934;2024-03-08T12:18:22;8.90;57.70
26707;DHT22;14319;49.422;10.934;2024-03-08T12:20:25;8.90;56.90
26707;DHT22;14319;49.422;10.934;2024-03-08T12:22:26;8.80;57.60
26707;DHT22;14319;49.422;10.934;2024-03-08T12:24:27;8.80;57.20
26707;DHT22;14319;49.422;10.934;2024-03-08T12:26:28;9.00;57.50
26707;DHT22;14319;49.422;10.934;2024-03-08T12:28:28;9.10;57.50
26707;DHT22;14319;49.422;10.934;2024-03-08T12:30:31;9.00;55.70
26707;DHT22;14319;49.422;10.934;2024-03-08T12:32:34;9.10;55.70
26707;DHT22;14319;49.422;10.934;2024-03-08T12:34:35;9.20;56.30
26707;DHT22;14319;49.422;10.934;2024-03-08T12:36:36;9.20;56.90
26707;DHT22;14319;49.422;10.934;2024-03-08T12:38:37;9.30;58.30
26707;DHT22;14319;49.422;10.934;2024-03-08T12:40:38;9.30;58.20
26707;DHT22;14319;49.422;10.934;2024-03-08T12:42:43;9.30;58.60
26707;DHT22;14319;49.422;10.934;2024-03-08T12:44:45;9.30;59.20
26707;DHT22;14319;49.422;10.934;2024-03-08T12:46:47;9.30;58.60
26707;DHT22;14319;49.422;10.934;2024-03-08T12:48:48;9.30;58.60
26707;DHT22;14319;49.422;10.934;2024-03-08T12:50:49;9.40;58.40
26707;DHT22;14319;49.422;10.934;2024-03-08T12:52:51;9.30;59.40